To NAV CANADA Home Page Login to a new session Search on AWWS site Feedback and Comments Disclaimer Vers la page française équivalente Tips FAQ What's new on the site To the Forecasts and Observations / NOTAM section To "File a Flight Plan" website Publications and other links Update of the User's profile FIC Telephone Numbers My Weather Data Folder Route Weather Data Regional Weather Data Local Weather Data To the Forecasts and Observations / NOTAM section
Request Generated 04/18/2015 at 15:08:29 UTC . Weather information available at that time is displayed.

METAR/TAF

QUAQTAQ/QC    

METAR CYHA 181500Z 19005KT 15SM FEW025 FEW120 OVC250 M08/M14 A2991 RMK SC1AC1CI0 TR AC SLP133=
METAR CYHA 181400Z 16006KT 15SM FEW025 FEW120 OVC250 M10/M14 A2992 RMK SC1AC1CI0 TR AC SLP137=
METAR CYHA 181300Z 14004KT 15SM FEW025 FEW120 OVC250 M11/M14 A2992 RMK SC1AC1CI0 TR AC SLP137=

TAF CYHA 181343Z 1814/1821 15005KT P6SM SCT020 TEMPO 1814/1821 BKN020
BECMG 1815/1817 20008KT
RMK NXT FCST WILL BE ISSUED AT 191345Z=
Your time UTC time
Weather data provided by Environment Canada and NAV CANADA